Portada
METAR-TAF:

METAR-TAF

Aeroports :

Amsterdam, Països Baixos

Aeroport d'Amsterdam-Schiphol

latitud: 52-18N, longitud: 004-46E, altitud: -4 m

Observació

L'informe es va fer fa 25 minuts, a les 01:55 UTC
Vent 13 kt del Est, variant entre Nord-Est i Est/Sud-Est
Temperatura -2°C
Humitat 59%
Pressió 1023 hPa
Visibilitat 10 km o més
sense núvols per sota de 1500 mi sense presència de cumulonimbus.

METAR: EHAM 240155Z 08013KT 050V110 CAVOK M02/M09 Q1023 NOSIG

Hora: 03:20 (02:20 UTC)

Pronòstic

L'informe es va fer fa 3 hores i 14 minuts, a les 23:06 UTC
Pronòstic vàlid del 24 a les 00 UTC al 25 a les 06 UTC
Vent 14 kt del Est
Visibilitat 10 km o més
sense núvols per sota de 1500 mi sense presència de cumulonimbus.
Evolucionant progressivament
l' 24 a les 08 UTC al 24 a les 10 UTC
Vent 15 kt del Est amb ràfegues de 25 kt
Evolucionant progressivament
l' 24 a les 19 UTC al 24 a les 22 UTC
Vent 12 kt del Est

TAF: EHAM 232306Z 2400/2506 08014KT CAVOK BECMG 2408/2410 09015G25KT BECMG 2419/2422 08012KT

Observacions i pronòstics meteorològics de més de 4000 aeroports (METAR i TAF).

Les estacions disponibles són els punts grocs i vermells al mapa.

Posi el ratolí al punt desitjat per veure el nom de l'estació.

Feu clic per veure les observacions i els pronòstics meteorològics.

Per canviar el mapa: feu clic els botons verds amb una creu de color negre per apropar; al botó verd amb un guió per allunyar la imatge; o en les fletxes verdes per a mapes adjacents.


METAR-TAF: